Time;durP1;ratioP1;P1;durP2;ratioP2;P2;SDS_P1;SDS_P2;PMS_P1;PMS_P2;Temp;Humidity;BMP_temperature;BMP_pressure;BME280_temperature;BME280_humidity;BME280_pressure;Samples;Min_cycle;Max_cycle;Signal;HPM_P1;HPM_P2
2022/01/18 05:00:35;;;;;;;3.15;1.20;;;6.20;99.90;;;;;;5940108;23;20286;-71
2022/01/18 05:03:01;;;;;;;3.00;1.10;;;6.10;99.90;;;;;;4965323;28;20295;-70
2022/01/18 05:05:31;;;;;;;1.83;1.73;;;6.10;99.90;;;;;;4964309;28;20677;-71
2022/01/18 05:08:00;;;;;;;5.03;1.02;;;6.10;99.90;;;;;;4973241;28;20335;-71
2022/01/18 05:10:29;;;;;;;5.65;1.55;;;6.20;99.90;;;;;;4971573;28;20232;-71
2022/01/18 05:12:57;;;;;;;3.58;1.38;;;6.10;99.90;;;;;;4961944;28;20405;-70
2022/01/18 05:15:40;;;;;;;2.60;0.88;;;6.10;99.90;;;;;;4961699;28;20200;-69
2022/01/18 05:18:58;;;;;;;3.78;1.02;;;6.10;99.90;;;;;;4960669;28;20681;-72
2022/01/18 05:21:18;;;;;;;3.15;1.50;;;6.10;99.90;;;;;;4964924;28;20228;-70
2022/01/18 05:23:45;;;;;;;5.18;1.10;;;6.20;99.90;;;;;;4956475;28;20209;-71
2022/01/18 05:26:12;;;;;;;2.60;1.00;;;6.10;99.90;;;;;;4954640;28;20205;-71
2022/01/18 05:28:39;;;;;;;2.35;1.27;;;6.10;99.90;;;;;;4954179;28;20678;-70
2022/01/18 05:31:05;;;;;;;2.40;0.90;;;6.10;99.90;;;;;;4956533;28;20287;-70
2022/01/18 05:33:34;;;;;;;3.42;0.93;;;6.10;99.90;;;;;;4973458;28;20208;-71
2022/01/18 05:36:00;;;;;;;6.43;1.30;;;6.20;99.90;;;;;;4957141;28;20212;-73
2022/01/18 05:38:29;;;;;;;4.80;1.15;;;6.10;99.90;;;;;;4950256;28;20209;-72
2022/01/18 05:40:56;;;;;;;2.28;0.85;;;6.10;99.90;;;;;;4947008;28;20253;-73
2022/01/18 05:43:22;;;;;;;4.07;1.05;;;6.10;99.90;;;;;;4954749;28;20209;-72
2022/01/18 05:45:49;;;;;;;4.32;1.33;;;6.10;99.90;;;;;;4954064;28;20669;-72
2022/01/18 05:48:16;;;;;;;1.38;1.33;;;6.10;99.90;;;;;;4953392;28;20209;-72
2022/01/18 05:50:44;;;;;;;4.97;1.25;;;6.10;99.90;;;;;;4953492;28;20233;-72
2022/01/18 05:53:11;;;;;;;2.85;1.35;;;6.10;99.90;;;;;;4953333;28;20221;-72
2022/01/18 05:55:37;;;;;;;4.60;1.17;;;6.10;99.90;;;;;;4954796;28;20580;-72
2022/01/18 05:58:04;;;;;;;4.10;0.98;;;6.10;99.90;;;;;;4954364;28;20217;-72
2022/01/18 06:00:31;;;;;;;3.70;1.25;;;6.10;99.90;;;;;;4954283;28;20666;-72
2022/01/18 06:03:10;;;;;;;1.50;1.08;;;6.10;99.90;;;;;;4962527;28;20275;-72
2022/01/18 06:08:23;;;;;;;1.02;0.98;;;6.10;99.90;;;;;;4958893;28;20310;-72
2022/01/18 06:10:50;;;;;;;2.60;1.30;;;6.10;99.90;;;;;;4953673;28;20735;-72
2022/01/18 06:13:16;;;;;;;2.33;1.52;;;6.10;99.90;;;;;;4954150;28;20205;-72
2022/01/18 06:15:44;;;;;;;3.80;1.88;;;6.10;99.90;;;;;;4949477;28;20206;-71
2022/01/18 06:18:12;;;;;;;3.38;1.35;;;6.10;99.90;;;;;;4952042;28;20292;-71
2022/01/18 06:20:40;;;;;;;1.45;1.35;;;6.20;99.90;;;;;;4953091;28;20263;-72
2022/01/18 06:23:07;;;;;;;4.45;1.23;;;6.10;99.90;;;;;;4961298;28;20817;-72
2022/01/18 06:25:35;;;;;;;1.67;0.93;;;6.10;99.90;;;;;;4952919;28;20202;-71
2022/01/18 06:28:01;;;;;;;6.53;1.60;;;6.10;99.90;;;;;;4960282;28;20759;-70
2022/01/18 06:30:28;;;;;;;4.22;1.20;;;6.10;99.90;;;;;;4956723;28;20729;-70
2022/01/18 06:32:55;;;;;;;2.75;1.15;;;6.10;99.90;;;;;;4952972;28;20217;-71
2022/01/18 06:35:22;;;;;;;1.50;0.90;;;6.10;99.90;;;;;;4952507;28;20260;-71
2022/01/18 06:37:48;;;;;;;1.80;1.15;;;6.10;99.90;;;;;;4952816;28;20209;-71
2022/01/18 06:40:16;;;;;;;1.30;0.90;;;6.10;99.90;;;;;;4952953;28;20216;-70
2022/01/18 06:42:44;;;;;;;3.22;1.90;;;6.10;99.90;;;;;;4947139;28;20612;-70
2022/01/18 06:45:12;;;;;;;3.60;1.60;;;6.10;99.90;;;;;;4951999;28;20213;-71
2022/01/18 06:47:39;;;;;;;4.03;0.98;;;6.10;99.90;;;;;;4952063;28;20209;-71
2022/01/18 06:50:07;;;;;;;7.93;1.75;;;6.10;99.90;;;;;;4958859;28;20209;-71
2022/01/18 06:52:34;;;;;;;2.78;1.50;;;6.10;99.90;;;;;;4952200;28;20721;-71
2022/01/18 06:55:02;;;;;;;4.90;1.48;;;6.10;99.90;;;;;;4959633;28;20302;-71
2022/01/18 06:57:29;;;;;;;5.28;1.52;;;6.10;99.90;;;;;;4952028;28;20548;-71
2022/01/18 06:59:57;;;;;;;1.55;1.35;;;6.10;99.90;;;;;;4967371;28;20721;-70
2022/01/18 07:02:23;;;;;;;2.50;1.20;;;6.00;99.90;;;;;;4971856;28;20232;-70
2022/01/18 07:04:50;;;;;;;7.53;3.53;;;6.00;99.90;;;;;;4954832;28;20280;-70
2022/01/18 07:07:17;;;;;;;5.35;4.82;;;6.00;99.90;;;;;;4940253;28;20609;-70
2022/01/18 07:09:44;;;;;;;11.48;2.60;;;6.00;99.90;;;;;;4950856;28;20228;-70
2022/01/18 07:12:12;;;;;;;3.38;1.73;;;6.00;99.90;;;;;;4952073;28;20235;-70
2022/01/18 07:14:40;;;;;;;3.65;1.50;;;6.00;99.90;;;;;;4952610;28;20249;-70
2022/01/18 07:17:09;;;;;;;5.25;1.63;;;6.00;99.90;;;;;;4951643;28;20256;-69
2022/01/18 07:19:36;;;;;;;4.97;1.30;;;6.00;99.90;;;;;;4951884;28;20228;-70
2022/01/18 07:22:03;;;;;;;2.55;1.20;;;6.00;99.90;;;;;;4953275;28;20224;-69
2022/01/18 07:24:41;;;;;;;4.85;1.73;;;6.00;99.90;;;;;;4963163;28;20205;-70
2022/01/18 07:27:10;;;;;;;6.32;2.85;;;6.00;99.90;;;;;;4951689;28;20229;-70
2022/01/18 07:29:38;;;;;;;3.35;3.00;;;5.90;99.90;;;;;;4951039;28;20202;-69
2022/01/18 07:32:06;;;;;;;5.05;2.78;;;5.90;99.90;;;;;;4948968;28;20255;-69
2022/01/18 07:34:38;;;;;;;9.40;3.45;;;5.90;99.90;;;;;;4958607;28;20295;-70
2022/01/18 07:37:05;;;;;;;5.28;2.10;;;5.90;99.90;;;;;;4956320;28;20657;-70
2022/01/18 07:39:32;;;;;;;5.10;3.00;;;5.90;99.90;;;;;;4960083;28;20205;-69
2022/01/18 07:41:58;;;;;;;3.42;2.28;;;5.90;99.90;;;;;;4952559;28;20227;-70
2022/01/18 07:44:25;;;;;;;3.83;2.45;;;5.90;99.90;;;;;;4952327;28;20264;-69
2022/01/18 07:46:52;;;;;;;8.27;2.65;;;5.90;99.90;;;;;;4950315;28;20210;-70
2022/01/18 07:49:19;;;;;;;5.55;3.20;;;5.90;99.90;;;;;;4949739;28;20205;-70
2022/01/18 07:51:47;;;;;;;5.80;3.10;;;5.80;99.90;;;;;;4958199;28;20233;-70
2022/01/18 07:54:13;;;;;;;7.80;3.20;;;5.90;99.90;;;;;;4961562;28;21807;-69
2022/01/18 07:56:41;;;;;;;5.88;2.70;;;5.90;99.90;;;;;;4974645;28;20270;-70
2022/01/18 07:59:09;;;;;;;10.25;3.95;;;5.80;99.90;;;;;;4963596;28;20256;-70
2022/01/18 08:01:35;;;;;;;11.02;3.45;;;5.80;99.90;;;;;;4954588;28;20308;-70
2022/01/18 08:04:02;;;;;;;9.25;2.90;;;5.80;99.90;;;;;;4951564;28;20205;-69
2022/01/18 08:06:29;;;;;;;16.52;3.83;;;5.80;99.90;;;;;;4955661;28;20236;-70
2022/01/18 08:08:57;;;;;;;8.55;5.18;;;5.70;99.90;;;;;;4955245;28;20209;-70
2022/01/18 08:11:24;;;;;;;11.52;5.10;;;5.80;99.90;;;;;;4955394;28;20229;-70
2022/01/18 08:13:51;;;;;;;8.45;4.53;;;5.80;99.90;;;;;;4966662;28;20927;-70
2022/01/18 08:16:35;;;;;;;6.10;4.35;;;5.80;99.90;;;;;;4965661;28;20216;-70
2022/01/18 08:19:03;;;;;;;10.55;5.68;;;5.80;99.90;;;;;;4972236;28;20259;-69
2022/01/18 08:21:30;;;;;;;9.73;4.20;;;5.80;99.90;;;;;;4961356;28;20229;-69
2022/01/18 08:23:58;;;;;;;10.38;4.72;;;5.80;99.90;;;;;;4973943;28;20208;-69
2022/01/18 08:26:25;;;;;;;11.88;4.80;;;5.80;99.90;;;;;;4955676;28;20252;-68
2022/01/18 08:28:52;;;;;;;10.38;4.43;;;5.80;99.90;;;;;;4954779;28;20209;-69
2022/01/18 08:31:18;;;;;;;8.38;4.28;;;5.80;99.90;;;;;;4955196;28;20295;-68
2022/01/18 08:33:45;;;;;;;15.50;6.45;;;6.00;99.90;;;;;;4955589;28;20209;-69
2022/01/18 08:36:12;;;;;;;18.40;5.28;;;6.10;99.90;;;;;;4957998;28;20693;-69
2022/01/18 08:38:40;;;;;;;9.38;4.63;;;6.10;99.90;;;;;;4955643;28;20224;-69
2022/01/18 08:41:08;;;;;;;13.38;4.72;;;6.10;99.90;;;;;;4958077;28;20285;-69
2022/01/18 08:43:37;;;;;;;12.00;5.70;;;6.20;99.90;;;;;;4957914;28;20756;-69
2022/01/18 08:46:04;;;;;;;15.98;6.07;;;6.20;99.90;;;;;;4963296;28;20316;-70
2022/01/18 08:48:31;;;;;;;14.30;5.65;;;6.30;99.90;;;;;;4945861;28;20220;-70
2022/01/18 08:50:59;;;;;;;11.88;5.00;;;6.40;99.90;;;;;;4955114;28;20297;-70
2022/01/18 08:53:26;;;;;;;11.68;5.32;;;6.50;99.90;;;;;;4952067;28;20237;-68
2022/01/18 08:55:54;;;;;;;12.88;5.28;;;6.50;99.90;;;;;;4967017;28;20209;-70
2022/01/18 08:58:22;;;;;;;16.55;5.53;;;6.50;99.90;;;;;;4969142;28;20240;-69
2022/01/18 09:00:49;;;;;;;12.18;4.43;;;6.60;99.90;;;;;;4953698;28;20233;-70
2022/01/18 09:03:16;;;;;;;17.67;4.43;;;6.60;99.90;;;;;;4955152;28;20217;-70
2022/01/18 09:05:44;;;;;;;19.90;5.15;;;6.70;99.90;;;;;;4960401;28;20200;-70
2022/01/18 09:08:12;;;;;;;13.73;5.07;;;6.70;99.90;;;;;;4960914;28;20212;-69
2022/01/18 09:10:39;;;;;;;11.68;4.55;;;6.80;99.90;;;;;;4956867;28;20257;-69
2022/01/18 09:13:06;;;;;;;19.83;4.20;;;6.80;99.90;;;;;;4954350;28;20690;-69
2022/01/18 09:15:34;;;;;;;14.95;4.85;;;6.90;99.90;;;;;;4956239;28;20209;-69
2022/01/18 09:18:00;;;;;;;14.25;4.97;;;6.90;99.90;;;;;;4956123;28;20205;-69
2022/01/18 09:20:27;;;;;;;19.65;7.60;;;6.90;99.90;;;;;;4954181;28;20271;-69
2022/01/18 09:22:54;;;;;;;12.48;4.63;;;7.00;99.90;;;;;;4956461;28;20258;-69
2022/01/18 09:25:23;;;;;;;14.63;4.40;;;7.00;99.90;;;;;;4955377;28;20213;-69
2022/01/18 09:27:50;;;;;;;18.48;5.28;;;7.10;99.90;;;;;;4954460;28;20260;-69
2022/01/18 09:30:17;;;;;;;23.58;8.52;;;7.10;99.90;;;;;;4950494;28;20305;-69
2022/01/18 09:32:46;;;;;;;13.35;3.80;;;7.20;99.90;;;;;;4953616;28;20232;-69
2022/01/18 09:35:15;;;;;;;18.30;5.03;;;7.20;99.90;;;;;;4953427;28;20209;-69
2022/01/18 09:37:42;;;;;;;13.00;6.30;;;7.30;99.90;;;;;;4952345;28;20582;-69
2022/01/18 09:40:09;;;;;;;22.67;9.45;;;7.30;99.90;;;;;;4953677;28;20202;-69
2022/01/18 09:42:40;;;;;;;15.27;5.53;;;7.30;99.90;;;;;;4953963;28;20641;-70
2022/01/18 09:45:10;;;;;;;14.27;6.38;;;7.40;99.90;;;;;;4949070;28;20268;-69
2022/01/18 09:47:37;;;;;;;11.15;4.40;;;7.50;99.90;;;;;;4937989;28;20631;-69
2022/01/18 09:50:08;;;;;;;20.10;7.85;;;7.50;99.90;;;;;;4934360;29;20218;-68
2022/01/18 09:52:35;;;;;;;18.02;4.70;;;7.60;99.90;;;;;;4934036;29;20355;-68
2022/01/18 09:55:02;;;;;;;15.27;6.80;;;7.60;99.90;;;;;;4935805;29;20206;-68
2022/01/18 09:57:30;;;;;;;11.38;5.45;;;7.60;99.90;;;;;;4962962;28;20204;-68
2022/01/18 09:59:56;;;;;;;11.93;5.63;;;7.70;99.90;;;;;;4972719;28;20614;-68
2022/01/18 10:02:23;;;;;;;15.23;5.03;;;7.70;99.90;;;;;;4972933;28;20851;-69
2022/01/18 10:04:52;;;;;;;21.27;5.28;;;7.80;99.90;;;;;;4963989;28;20209;-70
2022/01/18 10:07:31;;;;;;;13.88;5.30;;;7.80;99.90;;;;;;4953381;28;20216;-71
2022/01/18 10:09:59;;;;;;;11.40;5.13;;;7.80;99.90;;;;;;4953665;28;20264;-69
2022/01/18 10:12:26;;;;;;;14.60;4.32;;;7.80;99.90;;;;;;4953261;28;20229;-69
2022/01/18 10:14:54;;;;;;;15.55;4.68;;;7.90;99.90;;;;;;4944731;28;20206;-69
2022/01/18 10:17:30;;;;;;;13.90;5.43;;;7.90;99.90;;;;;;4934260;29;20698;-69
2022/01/18 10:20:03;;;;;;;13.75;5.38;;;8.00;99.90;;;;;;4938241;28;20263;-69
2022/01/18 10:22:39;;;;;;;8.43;4.38;;;8.00;99.90;;;;;;4952710;28;20233;-69
2022/01/18 10:25:14;;;;;;;11.88;4.63;;;8.00;99.90;;;;;;4952501;28;20235;-68
2022/01/18 10:27:40;;;;;;;16.60;4.88;;;8.10;99.90;;;;;;4971044;28;20207;-68
2022/01/18 10:30:15;;;;;;;13.13;5.95;;;8.10;99.90;;;;;;4972244;28;20213;-68
2022/01/18 10:32:42;;;;;;;13.45;5.57;;;8.10;99.90;;;;;;4972329;28;20692;-68
2022/01/18 10:35:11;;;;;;;14.85;6.13;;;8.00;99.90;;;;;;4961019;28;20209;-68
2022/01/18 10:37:42;;;;;;;16.08;6.20;;;8.10;99.90;;;;;;4952679;28;20212;-69
2022/01/18 10:40:17;;;;;;;14.65;5.93;;;8.10;99.90;;;;;;4951876;28;20221;-69
2022/01/18 10:42:47;;;;;;;10.20;5.35;;;8.10;99.90;;;;;;4945488;29;20287;-69
2022/01/18 10:45:21;;;;;;;17.98;6.47;;;8.10;99.90;;;;;;4952558;28;20679;-69
2022/01/18 10:47:51;;;;;;;17.00;7.10;;;8.10;99.90;;;;;;4951860;28;20637;-69
2022/01/18 10:50:19;;;;;;;15.57;6.70;;;8.10;99.90;;;;;;4952456;28;20892;-69
2022/01/18 10:52:49;;;;;;;12.70;4.53;;;8.10;99.90;;;;;;4952395;28;20702;-69
2022/01/18 10:55:19;;;;;;;5.95;3.42;;;8.10;99.90;;;;;;4944864;28;20308;-69
2022/01/18 10:57:47;;;;;;;7.13;3.15;;;8.10;99.90;;;;;;4972485;28;20225;-68
2022/01/18 11:00:17;;;;;;;12.38;6.68;;;8.10;99.90;;;;;;4972252;28;20204;-68
2022/01/18 11:02:45;;;;;;;17.60;8.65;;;8.10;99.90;;;;;;4971768;28;20211;-68
2022/01/18 11:05:14;;;;;;;17.63;8.45;;;8.10;99.90;;;;;;4961053;28;20209;-69
2022/01/18 11:07:41;;;;;;;19.13;9.25;;;8.10;99.90;;;;;;4952588;28;20205;-68
2022/01/18 11:10:11;;;;;;;15.93;6.47;;;8.10;99.90;;;;;;4947356;28;20217;-68
2022/01/18 11:12:45;;;;;;;12.93;5.50;;;8.20;99.90;;;;;;4951554;28;20274;-68
2022/01/18 11:15:19;;;;;;;18.35;6.95;;;8.20;99.90;;;;;;4952563;28;20219;-68
2022/01/18 11:17:51;;;;;;;17.60;6.80;;;8.20;99.90;;;;;;4952465;28;20300;-69
2022/01/18 11:20:20;;;;;;;19.25;6.88;;;8.10;99.90;;;;;;4952563;28;20213;-69
2022/01/18 11:22:49;;;;;;;15.18;4.75;;;8.10;99.90;;;;;;4955806;28;20296;-70
2022/01/18 11:25:18;;;;;;;7.65;3.75;;;8.10;99.90;;;;;;4960587;28;20223;-69
2022/01/18 11:27:49;;;;;;;9.63;3.22;;;8.10;99.90;;;;;;4955195;28;20245;-70
2022/01/18 11:30:16;;;;;;;12.32;3.17;;;8.10;99.90;;;;;;4957462;28;20212;-70
2022/01/18 11:32:44;;;;;;;9.25;3.10;;;8.10;99.90;;;;;;4956169;28;20225;-69
2022/01/18 11:35:14;;;;;;;11.48;2.65;;;8.10;99.90;;;;;;4957160;28;20267;-70
2022/01/18 11:37:57;;;;;;;9.82;3.75;;;8.20;99.90;;;;;;4956367;28;20701;-69
2022/01/18 11:40:26;;;;;;;10.68;3.10;;;8.10;99.90;;;;;;4956606;28;20213;-70
2022/01/18 11:42:55;;;;;;;5.45;2.45;;;8.10;99.90;;;;;;4952960;28;20529;-70
2022/01/18 11:45:39;;;;;;;6.50;2.97;;;8.10;99.90;;;;;;4955605;28;20209;-70
2022/01/18 11:48:11;;;;;;;10.23;2.67;;;8.10;99.90;;;;;;4955722;28;20330;-69
2022/01/18 11:50:41;;;;;;;9.55;3.10;;;8.00;99.90;;;;;;4958486;28;20251;-70
2022/01/18 11:53:25;;;;;;;4.85;1.83;;;8.00;99.90;;;;;;4958116;28;20225;-69
2022/01/18 11:55:55;;;;;;;7.65;2.50;;;8.00;99.90;;;;;;4971771;28;20296;-70
2022/01/18 11:58:23;;;;;;;4.88;2.17;;;8.10;99.90;;;;;;4968195;28;20206;-69
2022/01/18 12:00:55;;;;;;;3.85;2.65;;;8.10;99.90;;;;;;4955567;28;20698;-69
2022/01/18 12:03:25;;;;;;;2.03;1.90;;;8.10;99.90;;;;;;4954925;28;20284;-70
2022/01/18 12:05:52;;;;;;;5.88;2.00;;;8.10;99.90;;;;;;4955776;28;20646;-70
2022/01/18 12:08:34;;;;;;;5.10;2.97;;;8.20;99.90;;;;;;4955307;28;20591;-70
2022/01/18 12:11:03;;;;;;;9.50;2.33;;;8.20;99.90;;;;;;4955138;28;20233;-69
2022/01/18 12:13:36;;;;;;;5.15;2.42;;;8.20;99.90;;;;;;4947760;28;20252;-70
2022/01/18 12:16:09;;;;;;;10.02;2.50;;;8.30;99.90;;;;;;4936705;29;20206;-69
2022/01/18 12:18:35;;;;;;;6.80;3.35;;;8.30;99.90;;;;;;4935767;29;20274;-70
2022/01/18 12:21:04;;;;;;;11.43;3.45;;;8.30;99.90;;;;;;4936238;29;20245;-70
2022/01/18 12:23:42;;;;;;;8.70;3.72;;;8.30;99.90;;;;;;4941703;29;20206;-70
2022/01/18 12:26:20;;;;;;;5.78;3.45;;;8.30;99.90;;;;;;4968224;28;20201;-70
2022/01/18 12:29:08;;;;;;;5.60;2.95;;;8.30;99.90;;;;;;4974473;28;20208;-70
2022/01/18 12:34:40;;;;;;;11.15;3.30;;;8.30;99.90;;;;;;4951029;29;20240;-68
2022/01/18 12:37:53;;;;;;;5.00;2.40;;;8.30;99.90;;;;;;4954971;28;20216;-69
2022/01/18 12:40:43;;;;;;;11.18;2.55;;;8.30;99.90;;;;;;4941911;28;20206;-70
2022/01/18 12:45:58;;;;;;;9.13;2.42;;;8.30;99.90;;;;;;4957630;28;20220;-70
2022/01/18 12:48:25;;;;;;;6.32;2.30;;;8.30;99.90;;;;;;4953477;28;20205;-69
2022/01/18 12:50:55;;;;;;;5.97;2.13;;;8.30;99.90;;;;;;4953840;28;20221;-70
2022/01/18 12:53:26;;;;;;;12.70;2.92;;;8.30;99.90;;;;;;4953408;28;20236;-70
2022/01/18 12:55:55;;;;;;;10.15;3.50;;;8.30;99.90;;;;;;4960724;28;20224;-69
2022/01/18 12:58:26;;;;;;;8.25;3.65;;;8.30;99.90;;;;;;4962445;28;20287;-70
2022/01/18 13:00:54;;;;;;;4.32;1.88;;;8.30;99.90;;;;;;4965289;28;20619;-69
2022/01/18 13:03:24;;;;;;;8.55;2.53;;;8.30;99.90;;;;;;4951835;28;20618;-69
2022/01/18 13:05:53;;;;;;;2.92;2.35;;;8.20;99.90;;;;;;4952526;28;20280;-70
2022/01/18 13:08:23;;;;;;;3.22;1.70;;;8.30;99.90;;;;;;4954414;28;20201;-70
2022/01/18 13:10:52;;;;;;;10.07;2.35;;;8.30;99.90;;;;;;4954986;28;20714;-70
2022/01/18 13:13:22;;;;;;;13.10;2.58;;;8.20;99.90;;;;;;4963835;28;20224;-68
2022/01/18 13:22:55;;;;;;;7.10;2.85;;;8.20;99.90;;;;;;4974626;28;20232;-70
2022/01/18 13:24:52;;;;;;;4.47;1.75;;;8.20;99.90;;;;;;4958371;28;20228;-69
2022/01/18 13:27:25;;;;;;;3.70;1.58;;;8.20;99.90;;;;;;4955322;28;20272;-69
2022/01/18 13:29:55;;;;;;;3.08;1.80;;;8.20;99.90;;;;;;4943203;29;20670;-70
2022/01/18 13:32:27;;;;;;;3.20;1.67;;;8.20;99.90;;;;;;4957625;28;20630;-70
2022/01/18 13:34:57;;;;;;;2.28;1.27;;;8.20;99.90;;;;;;4953604;28;20324;-70
2022/01/18 13:37:27;;;;;;;1.90;1.80;;;8.10;99.90;;;;;;4950754;28;20214;-70
2022/01/18 13:39:56;;;;;;;2.50;2.00;;;8.10;99.90;;;;;;4953874;28;20205;-70
2022/01/18 13:42:27;;;;;;;6.72;2.42;;;8.20;99.90;;;;;;4954139;28;20221;-70
2022/01/18 13:45:16;;;;;;;2.67;2.47;;;8.10;99.90;;;;;;4942968;28;20303;-70
2022/01/18 13:47:46;;;;;;;6.78;2.15;;;8.10;99.90;;;;;;4950915;28;20241;-70
2022/01/18 13:50:53;;;;;;;5.13;2.17;;;8.10;99.90;;;;;;4944114;28;20212;-69
2022/01/18 13:53:22;;;;;;;6.13;2.20;;;8.10;99.90;;;;;;4944773;28;20320;-70
2022/01/18 13:55:52;;;;;;;4.13;2.65;;;8.00;99.90;;;;;;4958060;28;20300;-70
2022/01/18 13:58:24;;;;;;;7.90;2.70;;;8.00;99.90;;;;;;4950569;28;20213;-71
2022/01/18 14:01:04;;;;;;;2.45;2.08;;;8.00;99.90;;;;;;4944515;29;20237;-70
2022/01/18 14:03:34;;;;;;;4.40;2.40;;;8.00;99.90;;;;;;4943922;28;20211;-70
2022/01/18 14:06:01;;;;;;;7.68;2.28;;;8.00;99.90;;;;;;4951621;28;20207;-70
2022/01/18 14:08:36;;;;;;;3.35;2.22;;;8.00;99.90;;;;;;4947879;28;20606;-69
2022/01/18 14:11:05;;;;;;;7.43;2.60;;;8.00;99.90;;;;;;4948046;29;20581;-69
2022/01/18 14:13:36;;;;;;;3.97;2.00;;;7.90;99.90;;;;;;4937662;28;20229;-69
2022/01/18 14:16:04;;;;;;;3.45;1.65;;;7.90;99.90;;;;;;4934308;29;20221;-69
2022/01/18 14:18:49;;;;;;;1.83;1.70;;;7.90;99.90;;;;;;4954935;28;20236;-69
2022/01/18 14:21:29;;;;;;;2.90;1.73;;;7.90;99.90;;;;;;4946203;28;20236;-70
2022/01/18 14:24:13;;;;;;;2.65;2.50;;;7.90;99.90;;;;;;4940484;28;20556;-69
2022/01/18 14:26:41;;;;;;;2.55;2.10;;;7.90;99.90;;;;;;4948169;28;20209;-70
2022/01/18 14:29:09;;;;;;;4.25;2.40;;;7.90;99.90;;;;;;4938424;28;20273;-70
2022/01/18 14:31:36;;;;;;;2.53;2.30;;;7.80;99.90;;;;;;4934421;29;20257;-70
2022/01/18 14:34:03;;;;;;;4.32;1.67;;;7.80;99.90;;;;;;4934013;28;20257;-69
2022/01/18 14:36:31;;;;;;;4.35;1.55;;;7.80;99.90;;;;;;4938896;29;20316;-69
2022/01/18 14:39:09;;;;;;;4.25;1.85;;;7.80;99.90;;;;;;4953658;28;20205;-73
2022/01/18 14:41:36;;;;;;;4.00;1.98;;;7.80;99.90;;;;;;4955590;28;20225;-69
2022/01/18 14:44:12;;;;;;;2.38;1.80;;;7.80;99.90;;;;;;4942747;28;20198;-69
2022/01/18 14:46:56;;;;;;;6.22;2.53;;;7.80;99.90;;;;;;4938028;29;20227;-70
2022/01/18 14:49:23;;;;;;;5.93;2.92;;;7.80;99.90;;;;;;4948133;28;20209;-70
2022/01/18 14:51:51;;;;;;;3.40;1.90;;;7.80;99.90;;;;;;4950485;28;20283;-70
2022/01/18 14:54:18;;;;;;;3.30;2.42;;;7.80;99.90;;;;;;4951985;28;20241;-70
2022/01/18 14:56:44;;;;;;;2.78;2.58;;;7.70;99.90;;;;;;4952210;28;20243;-70
2022/01/18 14:59:11;;;;;;;4.53;2.28;;;7.80;99.90;;;;;;4944304;29;20556;-70
2022/01/18 15:01:40;;;;;;;3.78;2.30;;;7.70;99.90;;;;;;4944260;28;20375;-69
2022/01/18 15:04:07;;;;;;;3.65;2.53;;;7.70;99.90;;;;;;4954058;28;20197;-70
2022/01/18 15:06:34;;;;;;;1.90;1.90;;;7.70;99.90;;;;;;4941865;28;20248;-69
2022/01/18 15:09:02;;;;;;;2.58;2.38;;;7.70;99.90;;;;;;4942977;29;20208;-69
2022/01/18 15:11:28;;;;;;;2.60;2.40;;;7.60;99.90;;;;;;4937884;28;20237;-70
2022/01/18 15:13:55;;;;;;;6.95;5.03;;;7.60;99.90;;;;;;4937037;29;20226;-70
2022/01/18 15:16:22;;;;;;;3.60;3.15;;;7.60;99.90;;;;;;4934467;29;20210;-69
2022/01/18 15:18:48;;;;;;;4.47;2.60;;;7.60;99.90;;;;;;4932919;29;20304;-69
2022/01/18 15:21:15;;;;;;;2.28;1.83;;;7.60;99.90;;;;;;4942610;28;20233;-69
2022/01/18 15:23:42;;;;;;;2.58;2.22;;;7.60;99.90;;;;;;4948671;28;20197;-70
2022/01/18 15:26:11;;;;;;;2.50;2.33;;;7.60;99.90;;;;;;4948766;28;20220;-69
2022/01/18 15:28:38;;;;;;;2.38;2.28;;;7.50;99.90;;;;;;4952202;29;20674;-71
2022/01/18 15:31:05;;;;;;;5.65;2.83;;;7.50;99.90;;;;;;4941366;28;20221;-70
2022/01/18 15:33:32;;;;;;;3.10;2.45;;;7.50;99.90;;;;;;4939229;28;20206;-69
2022/01/18 15:35:58;;;;;;;2.40;2.20;;;7.50;99.90;;;;;;4933249;29;20220;-70
2022/01/18 15:38:25;;;;;;;6.32;2.47;;;7.50;99.90;;;;;;4941261;28;20216;-70
2022/01/18 15:40:52;;;;;;;3.58;2.75;;;7.50;99.90;;;;;;4944154;28;20232;-70
2022/01/18 15:43:20;;;;;;;3.30;3.03;;;7.50;99.90;;;;;;4949654;28;20791;-70
2022/01/18 15:45:48;;;;;;;2.25;2.13;;;7.50;99.90;;;;;;4952336;28;20560;-72
2022/01/18 15:48:14;;;;;;;2.67;2.40;;;7.50;99.90;;;;;;4948122;28;20635;-69
2022/01/18 15:50:41;;;;;;;11.52;4.10;;;7.50;99.90;;;;;;4944004;28;20226;-70
2022/01/18 15:53:08;;;;;;;4.90;4.03;;;7.50;99.90;;;;;;4939610;28;20200;-70
2022/01/18 15:55:34;;;;;;;3.03;2.75;;;7.50;99.90;;;;;;4946774;28;20259;-69
2022/01/18 15:58:02;;;;;;;3.03;2.70;;;7.40;99.90;;;;;;4947318;28;20209;-69
2022/01/18 16:00:30;;;;;;;5.15;3.55;;;7.40;99.90;;;;;;4949739;28;20245;-71
2022/01/18 16:02:57;;;;;;;2.67;2.47;;;7.40;99.90;;;;;;4945177;29;20205;-69
2022/01/18 16:05:24;;;;;;;2.80;2.60;;;7.30;99.90;;;;;;4952236;28;20581;-69
2022/01/18 16:07:55;;;;;;;3.35;2.75;;;7.30;99.90;;;;;;4944356;28;20639;-71
2022/01/18 16:10:22;;;;;;;2.22;2.13;;;7.30;99.90;;;;;;4940052;28;20214;-69
2022/01/18 16:12:49;;;;;;;4.30;2.85;;;7.30;99.90;;;;;;4936586;29;20210;-72
2022/01/18 16:15:16;;;;;;;8.63;4.10;;;7.30;99.90;;;;;;4942952;28;20237;-70
2022/01/18 16:17:44;;;;;;;25.88;12.18;;;7.30;99.90;;;;;;4947196;28;20354;-71
2022/01/18 16:20:11;;;;;;;3.05;2.80;;;7.30;99.90;;;;;;4943634;29;20217;-71
2022/01/18 16:22:38;;;;;;;3.28;1.85;;;7.20;99.90;;;;;;4952089;28;20230;-70
2022/01/18 16:25:06;;;;;;;6.70;2.45;;;7.20;99.90;;;;;;4948345;28;20291;-69
2022/01/18 16:27:33;;;;;;;5.25;3.75;;;7.20;99.90;;;;;;4966895;28;20207;-71
2022/01/18 16:29:59;;;;;;;4.63;4.43;;;7.20;99.90;;;;;;4958738;28;20564;-71
2022/01/18 16:32:26;;;;;;;9.77;5.90;;;7.20;99.90;;;;;;4955305;28;20229;-71
2022/01/18 16:34:55;;;;;;;4.60;4.25;;;7.20;99.90;;;;;;4954488;28;20673;-69
2022/01/18 16:37:21;;;;;;;6.40;4.60;;;7.30;99.90;;;;;;4954886;28;20336;-69
2022/01/18 16:39:49;;;;;;;10.57;7.15;;;7.20;99.90;;;;;;4954946;28;20283;-71
2022/01/18 16:42:15;;;;;;;5.10;4.43;;;7.20;99.90;;;;;;4954745;28;20241;-70
2022/01/18 16:44:42;;;;;;;5.75;4.88;;;7.20;99.90;;;;;;4955209;28;20650;-69
2022/01/18 16:47:09;;;;;;;5.68;3.58;;;7.20;99.90;;;;;;4952721;28;20217;-70
2022/01/18 16:49:35;;;;;;;5.28;3.63;;;7.20;99.90;;;;;;4952964;29;20209;-70
2022/01/18 16:52:05;;;;;;;14.65;4.80;;;7.20;99.90;;;;;;4955236;28;20225;-69
2022/01/18 16:54:32;;;;;;;5.00;4.60;;;7.20;99.90;;;;;;4955077;28;20320;-69
2022/01/18 16:56:59;;;;;;;7.22;6.50;;;7.20;99.90;;;;;;4954667;28;20240;-70
2022/01/18 16:59:25;;;;;;;6.65;4.28;;;7.20;99.90;;;;;;4954731;28;20208;-70
2022/01/18 17:01:52;;;;;;;5.22;4.25;;;7.20;99.90;;;;;;4954317;28;20595;-70
2022/01/18 17:04:19;;;;;;;5.00;3.55;;;7.20;99.90;;;;;;4947373;28;20230;-70
2022/01/18 17:06:46;;;;;;;5.82;3.97;;;7.20;99.90;;;;;;4935136;29;20217;-70
2022/01/18 17:09:14;;;;;;;7.28;4.30;;;7.20;99.90;;;;;;4935525;29;20280;-71
2022/01/18 17:11:43;;;;;;;8.55;5.15;;;7.10;99.90;;;;;;4935298;29;20699;-70
2022/01/18 17:14:10;;;;;;;7.15;5.25;;;7.10;99.90;;;;;;4935522;29;20238;-71
2022/01/18 17:16:36;;;;;;;7.55;5.60;;;7.10;99.90;;;;;;4936008;29;20674;-71
2022/01/18 17:19:04;;;;;;;7.63;5.72;;;7.10;99.90;;;;;;4934758;29;20210;-69
2022/01/18 17:21:32;;;;;;;9.25;6.10;;;7.10;99.90;;;;;;4944719;29;20280;-70
2022/01/18 17:23:58;;;;;;;6.30;5.03;;;7.10;99.90;;;;;;4954979;28;20213;-71
2022/01/18 17:26:26;;;;;;;12.30;7.47;;;7.10;99.90;;;;;;4954653;28;20594;-70
2022/01/18 17:28:53;;;;;;;7.22;6.55;;;7.10;99.90;;;;;;4950976;28;20302;-69
2022/01/18 17:31:20;;;;;;;11.88;8.43;;;7.00;99.90;;;;;;4953719;28;20225;-69
2022/01/18 17:33:47;;;;;;;9.77;7.65;;;7.00;99.90;;;;;;4953849;28;20222;-70
2022/01/18 17:36:14;;;;;;;8.90;7.40;;;7.00;99.90;;;;;;4953555;28;20718;-69
2022/01/18 17:38:41;;;;;;;7.57;6.70;;;7.00;99.90;;;;;;4951181;28;20209;-69
2022/01/18 17:41:11;;;;;;;7.15;4.95;;;7.00;99.90;;;;;;4971025;28;20240;-67
2022/01/18 17:43:39;;;;;;;6.50;4.63;;;7.00;99.90;;;;;;4947690;28;20659;-72
2022/01/18 17:46:06;;;;;;;11.02;5.03;;;7.00;99.90;;;;;;4954640;28;20201;-69
2022/01/18 17:48:33;;;;;;;4.88;4.47;;;7.00;99.90;;;;;;4953669;28;20213;-70
2022/01/18 17:50:59;;;;;;;8.25;6.72;;;6.90;99.90;;;;;;4954836;28;20993;-72
2022/01/18 17:53:26;;;;;;;8.38;5.95;;;7.00;99.90;;;;;;4961833;28;20215;-72
2022/01/18 17:55:54;;;;;;;8.73;8.05;;;6.90;99.90;;;;;;4953011;28;20225;-69
2022/01/18 17:58:21;;;;;;;7.38;6.78;;;6.90;99.90;;;;;;4954162;28;20295;-70
2022/01/18 18:00:52;;;;;;;6.90;5.50;;;6.90;99.90;;;;;;4952920;28;20741;-69
2022/01/18 18:03:19;;;;;;;5.72;4.70;;;6.90;99.90;;;;;;4959888;28;20209;-69
2022/01/18 18:05:46;;;;;;;6.15;4.13;;;6.90;99.90;;;;;;4953579;28;20208;-70
2022/01/18 18:08:13;;;;;;;4.60;4.20;;;6.90;99.90;;;;;;4955493;28;20205;-69
2022/01/18 18:10:40;;;;;;;5.40;4.55;;;6.90;99.90;;;;;;4943071;28;20237;-69
2022/01/18 18:13:07;;;;;;;6.43;5.95;;;6.90;99.90;;;;;;4952796;28;20672;-69
2022/01/18 18:15:33;;;;;;;4.85;4.43;;;6.80;99.90;;;;;;4941360;28;20633;-70
2022/01/18 18:18:03;;;;;;;4.57;4.18;;;6.80;99.90;;;;;;4962201;28;20928;-70